Temple, Georgia
Current Conditions -  °F | °C
As of 11:15 PM on Wednesday 17 Dec 2014 (Local Time) from KCTJ Reporting Station
Clear Clear  
Wind Chill: 36°   Ceiling: Unl
Heat Index: 36°   Visibility: 10mi
Dew Point: 36°   Wind: 3mph
Humidity: 100%   Direction: 330°NNW
Pressure: 30.2"   Gusts: NA
Location:  33.74°N, 85.03°W
Report Text: KCTJ 180415Z AUTO 33003KT 10SM CLR 02/02 A3020 RMK AO2
Loading
Personal Weather Stations






























Interactive Weather Map New forecast layout! Learn more

10-Day Weather Forecast

Advertisements
Track Severe Weather on mobile